Pacolet Mills, South Carolina
Current Conditions -  °F | °C
As of 3:35 PM on Thursday 23 Oct 2014 (Local Time) from KSPA Reporting Station
Clear Clear  
Wind Chill: 72°   Ceiling: Unl
Heat Index: 72°   Visibility: 10mi
Dew Point: 36°   Wind: 3mph
Humidity: 27%   Direction: 290°WNW
Pressure: 30"   Gusts: NA
Location:  34.92°N, 81.74°W
Report Text: KSPA 231935Z AUTO 29003KT 10SM CLR 22/02 A3000 RMK AO2
Loading
Personal Weather Stations






























Interactive Weather Map
Tropical Storm Tracking
New forecast layout! Learn more

10-Day Weather Forecast

Advertisements
Track Severe Weather on mobile